createdAt,value
2024-01-15T00:02:07.328Z,76.95
2024-01-15T00:04:39.928Z,76.58
2024-01-15T00:07:07.803Z,76.58
2024-01-15T00:09:35.521Z,76.48
2024-01-15T00:12:03.945Z,77.16
2024-01-15T00:14:31.503Z,76.43
2024-01-15T00:16:59.136Z,76.53
2024-01-15T00:19:28.197Z,76.33
2024-01-15T00:21:58.337Z,76.18
2024-01-15T00:24:25.909Z,76.67
2024-01-15T00:26:54.478Z,76.66
2024-01-15T00:29:22.047Z,76.35
2024-01-15T00:31:49.693Z,76.28
2024-01-15T00:34:17.461Z,76.04
2024-01-15T00:36:45.145Z,76.27
2024-01-15T00:39:14.301Z,76.04
2024-01-15T00:41:41.935Z,75.98
2024-01-15T00:44:09.558Z,76.11
2024-01-15T00:46:44.736Z,76.20
2024-01-15T00:49:12.807Z,76.15
2024-01-15T00:51:40.723Z,76.49
2024-01-15T00:54:08.532Z,76.38
2024-01-15T00:56:37.493Z,76.93
2024-01-15T00:59:05.072Z,76.87
2024-01-15T01:01:33.933Z,76.90
2024-01-15T01:04:01.737Z,76.88
2024-01-15T01:06:31.304Z,76.46
2024-01-15T01:08:59.731Z,75.30
2024-01-15T01:11:27.310Z,75.35
2024-01-15T01:13:57.689Z,74.97
2024-01-15T01:16:25.234Z,75.71
2024-01-15T01:18:53.136Z,75.04
2024-01-15T01:21:21.075Z,74.60
2024-01-15T01:23:48.750Z,74.31
2024-01-15T01:26:17.660Z,73.68
2024-01-15T01:28:45.239Z,73.47
2024-01-15T01:31:14.258Z,73.82
2024-01-15T01:33:42.062Z,73.78
2024-01-15T01:36:10.771Z,73.26
2024-01-15T01:38:38.646Z,73.09
2024-01-15T01:41:06.406Z,74.56
2024-01-15T01:43:34.011Z,75.14
2024-01-15T01:46:04.003Z,74.24
2024-01-15T01:48:34.202Z,75.99
2024-01-15T01:51:05.052Z,75.42
2024-01-15T01:53:35.915Z,74.75
2024-01-15T01:56:05.175Z,75.39
2024-01-15T01:58:33.763Z,75.33
2024-01-15T02:01:01.927Z,75.61
2024-01-15T02:03:30.483Z,75.29
2024-01-15T02:06:01.460Z,76.30
2024-01-15T02:08:29.186Z,76.38
2024-01-15T02:10:56.752Z,75.74
2024-01-15T02:13:24.384Z,75.66
2024-01-15T02:15:52.070Z,75.10
2024-01-15T02:18:19.898Z,74.57
2024-01-15T02:20:47.660Z,74.08
2024-01-15T02:23:17.657Z,73.87
2024-01-15T02:25:47.114Z,73.82
2024-01-15T02:28:16.551Z,73.63
2024-01-15T02:30:45.603Z,73.23
2024-01-15T02:33:14.292Z,73.16
2024-01-15T02:35:42.280Z,73.55
2024-01-15T02:38:10.264Z,73.55
2024-01-15T02:40:40.199Z,74.07
2024-01-15T02:43:07.814Z,74.10
2024-01-15T02:45:35.486Z,73.48
2024-01-15T02:48:03.250Z,72.72
2024-01-15T02:50:30.844Z,72.38
2024-01-15T02:52:58.439Z,71.62
2024-01-15T02:55:25.997Z,71.40
2024-01-15T02:57:54.917Z,70.56
2024-01-15T03:00:22.687Z,70.48
2024-01-15T03:02:52.303Z,69.17
2024-01-15T03:05:20.022Z,70.00
2024-01-15T03:07:47.659Z,69.26
2024-01-15T03:10:15.318Z,69.73
2024-01-15T03:12:43.018Z,69.32
2024-01-15T03:15:12.269Z,68.87
2024-01-15T03:17:39.887Z,69.12
2024-01-15T03:20:08.633Z,68.59
2024-01-15T03:22:36.275Z,68.66
2024-01-15T03:25:04.177Z,68.39
2024-01-15T03:27:31.772Z,68.39
2024-01-15T03:29:59.356Z,68.17
2024-01-15T03:32:28.291Z,68.98
2024-01-15T03:34:55.890Z,68.57
2024-01-15T03:37:23.455Z,68.99
2024-01-15T03:39:51.179Z,68.50
2024-01-15T03:42:18.979Z,68.20
2024-01-15T03:44:46.604Z,68.14
2024-01-15T03:47:14.190Z,67.94
2024-01-15T03:49:43.216Z,68.07
2024-01-15T03:52:10.947Z,67.71
2024-01-15T03:54:38.880Z,67.22
2024-01-15T03:57:06.787Z,67.97
2024-01-15T03:59:34.741Z,67.44
2024-01-15T04:02:02.327Z,67.23
2024-01-15T04:04:30.111Z,67.03
2024-01-15T04:06:59.186Z,66.98
2024-01-15T04:09:26.917Z,66.68
2024-01-15T04:11:54.487Z,66.53
2024-01-15T04:14:22.060Z,67.15
2024-01-15T04:16:49.615Z,76.78
2024-01-15T04:19:17.280Z,68.19
2024-01-15T04:21:45.110Z,58.93
2024-01-15T04:24:14.183Z,58.05
2024-01-15T04:26:41.823Z,59.94
2024-01-15T04:29:09.434Z,61.69
2024-01-15T04:31:37.193Z,62.81
2024-01-15T04:34:04.967Z,64.03
2024-01-15T04:36:32.644Z,71.76
2024-01-15T04:39:00.307Z,73.91
2024-01-15T04:41:29.235Z,65.43
2024-01-15T04:43:56.868Z,60.55
2024-01-15T04:46:24.649Z,61.92
2024-01-15T04:48:52.318Z,62.45
2024-01-15T04:51:20.055Z,63.06
2024-01-15T04:53:47.624Z,64.29
2024-01-15T04:56:15.181Z,64.89
2024-01-15T04:58:44.054Z,65.40
2024-01-15T05:01:12.183Z,66.60
2024-01-15T05:03:40.302Z,66.36
2024-01-15T05:06:08.508Z,66.98
2024-01-15T05:08:36.129Z,67.08
2024-01-15T05:11:03.775Z,67.37
2024-01-15T05:13:31.327Z,68.01
2024-01-15T05:16:00.414Z,68.46
2024-01-15T05:18:28.341Z,68.69
2024-01-15T05:20:56.015Z,68.73
2024-01-15T05:23:23.639Z,68.70
2024-01-15T05:25:51.526Z,68.96
2024-01-15T05:28:19.252Z,68.62
2024-01-15T05:30:47.000Z,67.97
2024-01-15T05:33:16.174Z,67.89
2024-01-15T05:35:43.956Z,68.07
2024-01-15T05:38:11.493Z,67.94
2024-01-15T05:40:39.133Z,68.56
2024-01-15T05:43:06.690Z,69.12
2024-01-15T05:45:36.568Z,68.68
2024-01-15T05:48:05.040Z,68.76
2024-01-15T05:50:34.057Z,69.28
2024-01-15T05:53:01.660Z,68.63
2024-01-15T05:55:29.199Z,68.32
2024-01-15T05:57:56.855Z,67.84
2024-01-15T06:00:24.559Z,67.42
2024-01-15T06:02:52.376Z,67.80
2024-01-15T06:05:20.050Z,67.25
2024-01-15T06:07:48.944Z,66.87
2024-01-15T06:10:16.674Z,66.55
2024-01-15T06:12:45.626Z,66.48
2024-01-15T06:15:14.059Z,66.73
2024-01-15T06:17:41.742Z,67.07
2024-01-15T06:20:10.837Z,67.79
2024-01-15T06:22:40.168Z,68.00
2024-01-15T06:25:10.226Z,68.03
2024-01-15T06:27:37.822Z,67.98
2024-01-15T06:30:07.284Z,68.00
2024-01-15T06:32:34.945Z,67.71
2024-01-15T06:35:02.583Z,68.23
2024-01-15T06:37:30.195Z,68.60
2024-01-15T06:39:58.057Z,68.21
2024-01-15T06:42:27.114Z,67.96
2024-01-15T06:44:54.772Z,68.65
2024-01-15T06:47:22.411Z,68.96
2024-01-15T06:49:51.628Z,68.94
2024-01-15T06:52:19.404Z,68.17
2024-01-15T06:54:47.045Z,68.31
2024-01-15T06:57:14.746Z,68.84
2024-01-15T06:59:43.653Z,68.42
2024-01-15T07:02:11.203Z,68.37
2024-01-15T07:04:41.340Z,69.33
2024-01-15T07:07:10.460Z,68.79
2024-01-15T07:09:38.050Z,68.87
2024-01-15T07:12:06.117Z,69.08
2024-01-15T07:14:33.718Z,69.14
2024-01-15T07:17:02.656Z,69.50
2024-01-15T07:19:30.370Z,69.13
2024-01-15T07:21:58.174Z,68.50
2024-01-15T07:24:25.873Z,69.58
2024-01-15T07:26:53.432Z,69.78
2024-01-15T07:29:21.048Z,69.08
2024-01-15T07:31:50.919Z,68.79
2024-01-15T07:34:20.224Z,68.69
2024-01-15T07:36:47.961Z,69.23
2024-01-15T07:39:16.007Z,68.75
2024-01-15T07:41:43.678Z,68.33
2024-01-15T07:44:11.211Z,68.56
2024-01-15T07:46:38.814Z,68.58
2024-01-15T07:49:06.844Z,68.62
2024-01-15T07:51:35.923Z,68.11
2024-01-15T07:54:03.527Z,68.22
2024-01-15T07:56:31.283Z,67.86
2024-01-15T07:58:58.910Z,67.45
2024-01-15T08:01:26.575Z,67.77
2024-01-15T08:03:55.784Z,67.62
2024-01-15T08:06:23.684Z,67.90
2024-01-15T08:08:52.802Z,67.69
2024-01-15T08:11:20.361Z,67.74
2024-01-15T08:13:47.921Z,67.38
2024-01-15T08:16:15.579Z,67.60
2024-01-15T08:18:44.092Z,67.75
2024-01-15T08:21:11.709Z,67.65
2024-01-15T08:23:39.546Z,68.11
2024-01-15T08:26:08.469Z,67.66
2024-01-15T08:28:37.216Z,67.74
2024-01-15T08:31:06.689Z,67.53
2024-01-15T08:33:34.469Z,67.98
2024-01-15T08:36:02.130Z,67.81
2024-01-15T08:38:29.665Z,68.86
2024-01-15T08:40:59.894Z,68.70
2024-01-15T08:43:28.820Z,67.62
2024-01-15T08:45:56.476Z,67.74
2024-01-15T08:48:24.264Z,67.86
2024-01-15T08:50:53.035Z,67.87
2024-01-15T08:53:20.909Z,69.42
2024-01-15T08:55:48.707Z,68.76
2024-01-15T08:58:16.871Z,68.27
2024-01-15T09:00:46.153Z,68.82
2024-01-15T09:03:13.973Z,68.63
2024-01-15T09:05:41.928Z,69.21
2024-01-15T09:08:09.627Z,68.63
2024-01-15T09:10:37.397Z,67.36
2024-01-15T09:13:05.772Z,68.54
2024-01-15T09:15:33.553Z,67.89
2024-01-15T09:18:06.192Z,67.91
2024-01-15T09:20:35.633Z,67.23
2024-01-15T09:23:03.675Z,66.40
2024-01-15T09:25:31.317Z,66.86
2024-01-15T09:27:59.179Z,66.81
2024-01-15T09:30:26.882Z,67.34
2024-01-15T09:32:54.720Z,66.34
2024-01-15T09:35:25.152Z,65.97
2024-01-15T09:37:53.144Z,66.02
2024-01-15T09:40:22.597Z,65.86
2024-01-15T09:42:50.909Z,66.10
2024-01-15T09:45:18.758Z,65.33
2024-01-15T09:47:47.181Z,65.13
2024-01-15T09:50:15.823Z,64.74
2024-01-15T09:52:45.682Z,64.67
2024-01-15T09:55:14.934Z,64.18
2024-01-15T09:57:43.084Z,64.22
2024-01-15T10:00:12.897Z,64.48
2024-01-15T10:02:41.118Z,63.75
2024-01-15T10:05:09.374Z,63.65
2024-01-15T10:07:39.287Z,63.59
2024-01-15T10:10:09.651Z,63.55
2024-01-15T10:12:38.452Z,63.54
2024-01-15T10:15:06.927Z,63.08
2024-01-15T10:17:34.684Z,62.74
2024-01-15T10:20:02.791Z,62.90
2024-01-15T10:22:30.541Z,63.36
2024-01-15T10:24:58.619Z,63.52
2024-01-15T10:27:27.665Z,63.45
2024-01-15T10:29:55.264Z,63.50
2024-01-15T10:32:24.997Z,63.38
2024-01-15T10:34:54.943Z,63.12
2024-01-15T10:37:24.491Z,63.47
2024-01-15T10:39:54.367Z,62.91
2024-01-15T10:42:23.125Z,62.74
2024-01-15T10:44:52.184Z,62.57
2024-01-15T10:47:20.591Z,62.32
2024-01-15T10:49:48.415Z,61.86
2024-01-15T10:52:16.863Z,61.88
2024-01-15T10:54:45.797Z,61.76
2024-01-15T10:57:14.403Z,60.79
2024-01-15T10:59:42.001Z,60.77
2024-01-15T11:02:11.422Z,60.50
2024-01-15T11:04:39.375Z,60.12
2024-01-15T11:07:07.558Z,59.57
2024-01-15T11:09:35.229Z,59.68
2024-01-15T11:12:11.388Z,59.25
2024-01-15T11:14:44.679Z,58.95
2024-01-15T11:17:14.246Z,59.00
2024-01-15T11:19:45.793Z,58.62
2024-01-15T11:22:58.921Z,58.34
2024-01-15T11:25:36.048Z,57.96
2024-01-15T11:28:03.953Z,57.55
2024-01-15T11:30:32.010Z,57.61
2024-01-15T11:33:01.074Z,57.26
2024-01-15T11:35:50.466Z,56.98
2024-01-15T11:38:29.459Z,57.09
2024-01-15T11:40:57.453Z,56.83
2024-01-15T11:43:25.264Z,57.24
2024-01-15T11:45:54.587Z,57.10
2024-01-15T11:48:25.190Z,57.53
2024-01-15T11:50:53.340Z,57.07
2024-01-15T11:53:35.082Z,57.06
2024-01-15T11:56:05.082Z,56.71
2024-01-15T11:58:33.105Z,56.60
2024-01-15T12:01:01.081Z,56.85
2024-01-15T12:03:30.078Z,56.63
2024-01-15T12:05:59.050Z,56.39
2024-01-15T12:08:28.146Z,56.50
2024-01-15T12:10:55.803Z,56.51
2024-01-15T12:13:23.532Z,56.35
2024-01-15T12:15:51.590Z,56.82
2024-01-15T12:18:20.842Z,56.53
2024-01-15T12:20:50.865Z,56.70
2024-01-15T12:23:19.603Z,56.54
2024-01-15T12:25:48.164Z,56.47
2024-01-15T12:28:16.883Z,56.74
2024-01-15T12:30:45.715Z,56.82
2024-01-15T12:33:13.505Z,57.11
2024-01-15T12:35:41.074Z,56.48
2024-01-15T12:38:09.975Z,56.63
2024-01-15T12:40:38.241Z,56.63
2024-01-15T12:43:07.866Z,56.50
2024-01-15T12:45:36.540Z,56.65
2024-01-15T12:48:04.940Z,56.69
2024-01-15T12:50:35.125Z,56.76
2024-01-15T12:53:03.182Z,56.97
2024-01-15T12:55:32.188Z,56.71
2024-01-15T12:57:59.790Z,56.69
2024-01-15T13:00:27.863Z,56.90
2024-01-15T13:02:55.904Z,56.98
2024-01-15T13:05:25.278Z,56.74
2024-01-15T13:07:53.193Z,56.90
2024-01-15T13:10:21.635Z,56.90
2024-01-15T13:12:51.776Z,56.98
2024-01-15T13:15:19.529Z,57.26
2024-01-15T13:17:47.396Z,57.16
2024-01-15T13:20:15.087Z,56.63
2024-01-15T13:22:45.364Z,56.53
2024-01-15T13:25:13.445Z,56.92
2024-01-15T13:27:42.004Z,56.61
2024-01-15T13:30:13.548Z,57.42
2024-01-15T13:32:41.551Z,58.36
2024-01-15T13:35:13.988Z,57.84
2024-01-15T13:37:42.399Z,58.60
2024-01-15T13:40:17.157Z,58.83
2024-01-15T13:42:45.080Z,59.15
2024-01-15T13:45:15.521Z,60.65
2024-01-15T13:47:44.290Z,60.83
2024-01-15T13:50:12.189Z,61.64
2024-01-15T13:52:39.885Z,62.57
2024-01-15T13:55:09.906Z,62.74
2024-01-15T13:57:37.830Z,63.08
2024-01-15T14:00:10.854Z,62.79
2024-01-15T14:02:39.847Z,62.52
2024-01-15T14:05:08.582Z,62.29
2024-01-15T14:07:36.285Z,62.66
2024-01-15T14:10:04.975Z,62.97
2024-01-15T14:12:32.604Z,62.62
2024-01-15T14:15:00.181Z,62.94
2024-01-15T14:17:27.786Z,62.72
2024-01-15T14:19:57.458Z,62.73
2024-01-15T14:22:25.786Z,62.97
2024-01-15T14:24:53.983Z,64.02
2024-01-15T14:27:22.652Z,64.38
2024-01-15T14:29:50.227Z,64.24
2024-01-15T14:32:17.774Z,64.20
2024-01-15T14:34:45.621Z,65.15
2024-01-15T14:37:14.579Z,65.14
2024-01-15T14:39:42.173Z,64.73
2024-01-15T14:42:09.954Z,64.81
2024-01-15T14:44:39.182Z,64.69
2024-01-15T14:47:06.951Z,64.58
2024-01-15T14:49:34.820Z,65.13
2024-01-15T14:52:02.526Z,64.73
2024-01-15T14:54:31.505Z,64.72
2024-01-15T14:56:59.068Z,65.08
2024-01-15T14:59:26.752Z,64.61
2024-01-15T15:01:55.020Z,64.67
2024-01-15T15:04:22.689Z,64.61
2024-01-15T15:06:51.072Z,64.00
2024-01-15T15:09:18.675Z,64.04
2024-01-15T15:11:47.633Z,63.63
2024-01-15T15:14:15.296Z,64.32
2024-01-15T15:16:43.022Z,62.96
2024-01-15T15:19:10.736Z,62.77
2024-01-15T15:21:38.939Z,62.74
2024-01-15T15:24:06.947Z,62.68
2024-01-15T15:26:34.528Z,63.23
2024-01-15T15:29:03.537Z,63.30
2024-01-15T15:31:31.191Z,63.21
2024-01-15T15:33:59.095Z,63.08
2024-01-15T15:36:26.905Z,62.49
2024-01-15T15:38:58.409Z,62.98
2024-01-15T15:41:28.849Z,62.78
2024-01-15T15:43:56.431Z,62.71
2024-01-15T15:46:25.379Z,62.58
2024-01-15T15:48:53.699Z,62.52
2024-01-15T15:51:21.360Z,62.51
2024-01-15T15:53:49.324Z,62.56
2024-01-15T15:56:18.174Z,62.76
2024-01-15T15:58:45.733Z,64.65
2024-01-15T16:01:13.384Z,63.79
2024-01-15T16:03:42.456Z,63.80
2024-01-15T16:06:10.164Z,63.90
2024-01-15T16:08:37.895Z,63.86
2024-01-15T16:11:05.551Z,70.44
2024-01-15T16:13:33.352Z,60.35
2024-01-15T16:23:09.218Z,60.82
2024-01-15T16:23:22.417Z,61.33
2024-01-15T16:23:37.368Z,61.76
2024-01-15T16:24:33.979Z,63.16
2024-01-15T16:29:41.573Z,65.27
2024-01-15T16:32:09.192Z,64.72
2024-01-15T16:34:38.184Z,65.23
2024-01-15T16:37:07.463Z,64.86
2024-01-15T16:39:35.149Z,65.54
2024-01-15T16:42:02.742Z,72.24
2024-01-15T16:44:31.658Z,62.99
2024-01-15T16:47:03.709Z,59.05
2024-01-15T16:49:33.629Z,60.94
2024-01-15T16:52:02.797Z,61.97
2024-01-15T16:54:30.989Z,63.78
2024-01-15T16:56:58.558Z,64.07
2024-01-15T16:59:26.276Z,67.42
2024-01-15T17:01:53.908Z,61.15
2024-01-15T17:04:21.502Z,56.15
2024-01-15T17:06:49.073Z,58.12
2024-01-15T17:09:17.982Z,59.35
2024-01-15T17:11:45.648Z,61.75
2024-01-15T17:14:13.304Z,62.58
2024-01-15T17:16:40.904Z,63.59
2024-01-15T17:19:09.352Z,63.71
2024-01-15T17:21:36.914Z,63.60
2024-01-15T17:24:05.134Z,69.77
2024-01-15T17:26:34.186Z,61.92
2024-01-15T17:29:01.781Z,55.20
2024-01-15T17:31:30.801Z,57.99
2024-01-15T17:34:00.145Z,61.65
2024-01-15T17:36:27.898Z,63.17
2024-01-15T17:38:55.513Z,64.61
2024-01-15T17:41:23.287Z,65.34
2024-01-15T17:43:52.308Z,66.42
2024-01-15T17:46:20.238Z,66.71
2024-01-15T17:48:48.487Z,67.94
2024-01-15T17:51:18.561Z,68.42
2024-01-15T17:53:46.242Z,68.78
2024-01-15T17:56:13.959Z,69.03
2024-01-15T17:58:41.929Z,69.87
2024-01-15T18:01:12.008Z,69.86
2024-01-15T18:03:40.327Z,69.90
2024-01-15T18:06:08.742Z,69.14
2024-01-15T18:08:36.447Z,69.65
2024-01-15T18:11:05.656Z,69.53
2024-01-15T18:13:33.521Z,68.97
2024-01-15T18:16:01.183Z,68.60
2024-01-15T18:18:30.447Z,68.14
2024-01-15T18:20:58.065Z,67.81
2024-01-15T18:23:25.716Z,75.66
2024-01-15T18:25:53.283Z,64.51
2024-01-15T18:28:21.005Z,57.53
2024-01-15T18:30:48.705Z,55.53
2024-01-15T18:33:16.352Z,58.22
2024-01-15T18:35:45.542Z,60.25
2024-01-15T18:38:13.202Z,62.78
2024-01-15T18:40:40.892Z,63.75
2024-01-15T18:43:08.447Z,63.52
2024-01-15T18:45:37.801Z,64.36
2024-01-15T18:48:06.068Z,64.77
2024-01-15T18:50:33.841Z,65.61
2024-01-15T18:53:02.884Z,66.28
2024-01-15T18:55:30.514Z,66.16
2024-01-15T18:58:00.473Z,65.95
2024-01-15T19:00:28.422Z,65.73
2024-01-15T19:02:59.146Z,65.99
2024-01-15T19:05:27.269Z,66.74
2024-01-15T19:07:55.092Z,66.29
2024-01-15T19:10:24.227Z,72.88
2024-01-15T19:12:51.825Z,65.49
2024-01-15T19:15:21.299Z,57.91
2024-01-15T19:17:49.900Z,58.76
2024-01-15T19:20:18.227Z,60.60
2024-01-15T19:22:45.871Z,62.61
2024-01-15T19:25:13.621Z,63.62
2024-01-15T19:27:45.487Z,64.63
2024-01-15T19:30:15.084Z,64.75
2024-01-15T19:32:43.169Z,64.79
2024-01-15T19:35:11.874Z,65.88
2024-01-15T19:37:39.830Z,63.78
2024-01-15T19:40:08.692Z,63.78
2024-01-15T19:42:36.320Z,61.27
2024-01-15T19:45:06.091Z,63.19
2024-01-15T19:47:34.030Z,64.10
2024-01-15T19:50:01.701Z,65.21
2024-01-15T19:52:29.286Z,65.61
2024-01-15T19:54:58.532Z,65.88
2024-01-15T19:57:26.247Z,66.75
2024-01-15T19:59:55.496Z,66.77
2024-01-15T20:02:24.484Z,67.03
2024-01-15T20:04:52.068Z,73.85
2024-01-15T20:07:19.656Z,71.22
2024-01-15T20:09:47.643Z,63.64
2024-01-15T20:12:15.260Z,62.49
2024-01-15T20:14:42.855Z,65.50
2024-01-15T20:17:10.483Z,64.38
2024-01-15T20:19:39.480Z,64.65
2024-01-15T20:22:07.233Z,64.99
2024-01-15T20:24:34.787Z,65.26
2024-01-15T20:27:02.322Z,65.35
2024-01-15T20:29:29.891Z,66.20
2024-01-15T20:31:57.684Z,66.56
2024-01-15T20:34:25.520Z,66.97
2024-01-15T20:36:54.466Z,66.69
2024-01-15T20:39:22.242Z,67.01
2024-01-15T20:41:50.306Z,67.95
2024-01-15T20:44:19.614Z,71.92
2024-01-15T20:46:47.461Z,62.51
2024-01-15T20:49:15.442Z,63.69
2024-01-15T20:51:43.016Z,65.30
2024-01-15T20:54:11.993Z,65.01
2024-01-15T20:56:39.578Z,65.35
2024-01-15T20:59:07.250Z,65.24
2024-01-15T21:01:34.817Z,57.13
2024-01-15T21:04:02.488Z,57.99
2024-01-15T21:06:30.179Z,59.49
2024-01-15T21:08:57.849Z,60.63
2024-01-15T21:11:27.715Z,61.37
2024-01-15T21:13:55.400Z,61.89
2024-01-15T21:16:22.974Z,62.79
2024-01-15T21:18:51.575Z,63.14
2024-01-15T21:21:19.739Z,63.81
2024-01-15T21:23:47.400Z,64.08
2024-01-15T21:26:15.304Z,64.40
2024-01-15T21:28:44.374Z,64.34
2024-01-15T21:31:12.010Z,64.56
2024-01-15T21:33:42.865Z,64.59
2024-01-15T21:36:10.485Z,64.77
2024-01-15T21:38:38.144Z,64.83
2024-01-15T21:41:06.281Z,65.22
2024-01-15T21:43:33.872Z,65.10
2024-01-15T21:46:02.840Z,65.17
2024-01-15T21:48:30.603Z,64.87
2024-01-15T21:50:58.232Z,65.04
2024-01-15T21:53:25.827Z,65.21
2024-01-15T21:55:53.435Z,65.01
2024-01-15T21:58:21.164Z,65.03
2024-01-15T22:00:48.935Z,64.53
2024-01-15T22:03:18.541Z,64.77
2024-01-15T22:05:46.162Z,64.81
2024-01-15T22:08:13.817Z,64.69
2024-01-15T22:10:41.784Z,64.78
2024-01-15T22:13:09.673Z,65.09
2024-01-15T22:15:38.041Z,65.39
2024-01-15T22:18:06.036Z,65.26
2024-01-15T22:20:35.132Z,65.30
2024-01-15T22:23:02.717Z,65.09
2024-01-15T22:25:32.952Z,65.46
2024-01-15T22:28:00.668Z,65.98
2024-01-15T22:30:28.327Z,66.25
2024-01-15T22:32:56.093Z,66.54
2024-01-15T22:35:23.813Z,66.85
2024-01-15T22:37:53.198Z,66.59
2024-01-15T22:40:20.985Z,68.55
2024-01-15T22:42:48.574Z,70.59
2024-01-15T22:45:17.540Z,71.12
2024-01-15T22:47:45.700Z,70.15
2024-01-15T22:50:14.256Z,69.21
2024-01-15T22:52:42.052Z,68.39
2024-01-15T22:55:11.619Z,68.02
2024-01-15T22:57:39.161Z,67.87
2024-01-15T23:00:13.471Z,67.75
2024-01-15T23:02:41.080Z,68.14
2024-01-15T23:05:09.626Z,67.99
2024-01-15T23:07:37.652Z,68.26
2024-01-15T23:10:08.039Z,67.99
2024-01-15T23:12:37.570Z,67.85
2024-01-15T23:15:06.080Z,67.83
2024-01-15T23:17:33.752Z,67.64
2024-01-15T23:20:01.425Z,67.35
2024-01-15T23:22:29.007Z,67.66
2024-01-15T23:24:55.575Z,67.77
2024-01-15T23:27:23.152Z,67.84
2024-01-15T23:29:52.054Z,67.92
2024-01-15T23:32:19.876Z,68.39
2024-01-15T23:34:47.439Z,68.54
2024-01-15T23:37:15.865Z,68.11
2024-01-15T23:39:43.407Z,67.89
2024-01-15T23:42:14.805Z,67.53
2024-01-15T23:44:42.973Z,67.69
2024-01-15T23:47:12.106Z,68.10
2024-01-15T23:49:40.360Z,67.94
2024-01-15T23:52:08.540Z,67.77
2024-01-15T23:54:37.564Z,67.98
2024-01-15T23:57:05.452Z,68.06
2024-01-15T23:59:35.161Z,68.42
